sensor_id;sensor_type;location;lat;lon;timestamp;pressure;altitude;pressure_sealevel;temperature;humidity
38227;BME280;24026;49.446;8.576;2023-02-13T00:01:46;102575.56;;;10.71;51.07
38227;BME280;24026;49.446;8.576;2023-02-13T00:04:06;102574.53;;;10.72;51.08
38227;BME280;24026;49.446;8.576;2023-02-13T00:06:26;102573.88;;;10.70;51.11
38227;BME280;24026;49.446;8.576;2023-02-13T00:08:47;102576.75;;;10.68;51.11
38227;BME280;24026;49.446;8.576;2023-02-13T00:11:07;102570.41;;;10.69;51.14
38227;BME280;24026;49.446;8.576;2023-02-13T00:13:27;102565.09;;;10.69;51.12
38227;BME280;24026;49.446;8.576;2023-02-13T00:15:59;102571.59;;;10.67;51.06
38227;BME280;24026;49.446;8.576;2023-02-13T00:18:19;102559.31;;;10.66;51.11
38227;BME280;24026;49.446;8.576;2023-02-13T00:20:40;102568.31;;;10.65;51.06
38227;BME280;24026;49.446;8.576;2023-02-13T00:23:00;102560.97;;;10.67;50.70
38227;BME280;24026;49.446;8.576;2023-02-13T00:25:20;102564.00;;;10.64;51.42
38227;BME280;24026;49.446;8.576;2023-02-13T00:27:41;102554.84;;;10.66;50.97
38227;BME280;24026;49.446;8.576;2023-02-13T00:30:03;102554.00;;;10.66;51.05
38227;BME280;24026;49.446;8.576;2023-02-13T00:32:23;102551.72;;;10.63;50.89
38227;BME280;24026;49.446;8.576;2023-02-13T00:34:44;102550.69;;;10.64;51.05
38227;BME280;24026;49.446;8.576;2023-02-13T00:37:04;102557.88;;;10.63;50.97
38227;BME280;24026;49.446;8.576;2023-02-13T00:39:25;102547.41;;;10.62;51.08
38227;BME280;24026;49.446;8.576;2023-02-13T00:41:45;102552.72;;;10.62;51.06
38227;BME280;24026;49.446;8.576;2023-02-13T00:44:05;102551.25;;;10.59;51.02
38227;BME280;24026;49.446;8.576;2023-02-13T00:46:26;102551.47;;;10.57;51.07
38227;BME280;24026;49.446;8.576;2023-02-13T00:48:46;102547.78;;;10.59;51.21
38227;BME280;24026;49.446;8.576;2023-02-13T00:51:07;102550.44;;;10.59;51.08
38227;BME280;24026;49.446;8.576;2023-02-13T00:53:28;102556.78;;;10.57;51.21
38227;BME280;24026;49.446;8.576;2023-02-13T00:55:49;102553.09;;;10.59;51.00
38227;BME280;24026;49.446;8.576;2023-02-13T00:58:10;102555.13;;;10.56;51.00
38227;BME280;24026;49.446;8.576;2023-02-13T01:00:30;102549.00;;;10.56;51.04
38227;BME280;24026;49.446;8.576;2023-02-13T01:02:50;102546.34;;;10.56;50.78
38227;BME280;24026;49.446;8.576;2023-02-13T01:05:11;102551.66;;;10.56;51.26
38227;BME280;24026;49.446;8.576;2023-02-13T01:07:31;102558.78;;;10.55;50.96
38227;BME280;24026;49.446;8.576;2023-02-13T01:09:51;102560.66;;;10.55;50.96
38227;BME280;24026;49.446;8.576;2023-02-13T01:12:12;102553.88;;;10.52;50.83
38227;BME280;24026;49.446;8.576;2023-02-13T01:14:33;102556.31;;;10.54;50.90
38227;BME280;24026;49.446;8.576;2023-02-13T01:16:53;102556.72;;;10.51;50.84
38227;BME280;24026;49.446;8.576;2023-02-13T01:19:13;102564.50;;;10.52;51.12
38227;BME280;24026;49.446;8.576;2023-02-13T01:21:34;102570.66;;;10.53;50.92
38227;BME280;24026;49.446;8.576;2023-02-13T01:23:54;102571.47;;;10.53;50.85
38227;BME280;24026;49.446;8.576;2023-02-13T01:26:24;102569.38;;;10.49;50.83
38227;BME280;24026;49.446;8.576;2023-02-13T01:28:44;102567.38;;;10.51;50.84
38227;BME280;24026;49.446;8.576;2023-02-13T01:31:08;102571.03;;;10.50;50.87
38227;BME280;24026;49.446;8.576;2023-02-13T01:33:28;102559.75;;;10.48;50.88
38227;BME280;24026;49.446;8.576;2023-02-13T01:35:49;102563.41;;;10.47;50.99
38227;BME280;24026;49.446;8.576;2023-02-13T01:38:10;102566.88;;;10.47;50.65
38227;BME280;24026;49.446;8.576;2023-02-13T01:40:30;102558.91;;;10.47;50.68
38227;BME280;24026;49.446;8.576;2023-02-13T01:42:51;102555.44;;;10.47;50.62
38227;BME280;24026;49.446;8.576;2023-02-13T01:45:27;102563.59;;;10.45;50.45
38227;BME280;24026;49.446;8.576;2023-02-13T01:47:52;102553.16;;;10.44;50.68
38227;BME280;24026;49.446;8.576;2023-02-13T01:50:20;102552.34;;;10.43;50.67
38227;BME280;24026;49.446;8.576;2023-02-13T01:52:46;102557.66;;;10.43;50.62
38227;BME280;24026;49.446;8.576;2023-02-13T01:55:08;102555.00;;;10.43;50.49
38227;BME280;24026;49.446;8.576;2023-02-13T01:57:31;102565.81;;;10.42;50.61
38227;BME280;24026;49.446;8.576;2023-02-13T01:59:58;102559.69;;;10.41;50.56
38227;BME280;24026;49.446;8.576;2023-02-13T02:02:21;102561.72;;;10.39;50.51
38227;BME280;24026;49.446;8.576;2023-02-13T02:04:42;102562.53;;;10.40;50.46
38227;BME280;24026;49.446;8.576;2023-02-13T02:07:09;102562.72;;;10.38;50.40
38227;BME280;24026;49.446;8.576;2023-02-13T02:09:34;102566.38;;;10.37;50.38
38227;BME280;24026;49.446;8.576;2023-02-13T02:12:10;102561.41;;;10.34;50.37
38227;BME280;24026;49.446;8.576;2023-02-13T02:14:32;102569.41;;;10.34;50.41
38227;BME280;24026;49.446;8.576;2023-02-13T02:16:53;102560.41;;;10.35;50.21
38227;BME280;24026;49.446;8.576;2023-02-13T02:19:34;102558.13;;;10.32;50.11
38227;BME280;24026;49.446;8.576;2023-02-13T02:32:56;102557.22;;;10.25;50.03
38227;BME280;24026;49.446;8.576;2023-02-13T02:36:03;102556.94;;;10.19;50.32
38227;BME280;24026;49.446;8.576;2023-02-13T02:38:35;102559.06;;;10.24;50.15
38227;BME280;24026;49.446;8.576;2023-02-13T02:46:36;102547.94;;;10.20;50.02
38227;BME280;24026;49.446;8.576;2023-02-13T02:52:02;102548.34;;;10.17;49.84
38227;BME280;24026;49.446;8.576;2023-02-13T02:54:26;102552.63;;;10.18;49.88
38227;BME280;24026;49.446;8.576;2023-02-13T02:57:13;102553.84;;;10.16;49.74
38227;BME280;24026;49.446;8.576;2023-02-13T02:59:35;102548.53;;;10.16;49.80
38227;BME280;24026;49.446;8.576;2023-02-13T03:02:15;102554.84;;;10.15;49.83
38227;BME280;24026;49.446;8.576;2023-02-13T03:05:36;102548.09;;;10.12;49.92
38227;BME280;24026;49.446;8.576;2023-02-13T03:08:15;102549.72;;;10.13;49.72
38227;BME280;24026;49.446;8.576;2023-02-13T03:10:56;102554.03;;;10.14;49.89
38227;BME280;24026;49.446;8.576;2023-02-13T03:13:43;102563.00;;;10.13;49.77
38227;BME280;24026;49.446;8.576;2023-02-13T03:16:11;102556.41;;;10.09;49.49
38227;BME280;24026;49.446;8.576;2023-02-13T03:18:55;102570.34;;;10.11;49.54
38227;BME280;24026;49.446;8.576;2023-02-13T03:22:16;102570.06;;;10.06;49.50
38227;BME280;24026;49.446;8.576;2023-02-13T03:24:53;102573.34;;;10.08;49.68
38227;BME280;24026;49.446;8.576;2023-02-13T03:38:21;102578.22;;;10.05;49.35
38227;BME280;24026;49.446;8.576;2023-02-13T03:40:48;102585.38;;;10.04;49.34
38227;BME280;24026;49.446;8.576;2023-02-13T03:43:32;102579.22;;;10.04;49.19
38227;BME280;24026;49.446;8.576;2023-02-13T03:45:56;102585.56;;;10.02;49.28
38227;BME280;24026;49.446;8.576;2023-02-13T03:48:21;102584.91;;;10.00;49.05
38227;BME280;24026;49.446;8.576;2023-02-13T03:51:02;102588.59;;;9.99;49.27
38227;BME280;24026;49.446;8.576;2023-02-13T03:53:27;102587.75;;;9.99;49.20
38227;BME280;24026;49.446;8.576;2023-02-13T03:55:51;102589.56;;;9.98;49.18
38227;BME280;24026;49.446;8.576;2023-02-13T03:58:34;102589.56;;;9.98;49.04
38227;BME280;24026;49.446;8.576;2023-02-13T04:01:16;102593.25;;;9.97;49.00
38227;BME280;24026;49.446;8.576;2023-02-13T04:03:48;102586.66;;;9.93;49.07
38227;BME280;24026;49.446;8.576;2023-02-13T04:06:13;102584.44;;;9.97;48.88
38227;BME280;24026;49.446;8.576;2023-02-13T04:08:34;102586.66;;;9.93;48.99
38227;BME280;24026;49.446;8.576;2023-02-13T04:11:14;102588.03;;;9.89;49.00
38227;BME280;24026;49.446;8.576;2023-02-13T04:13:46;102582.53;;;9.91;49.00
38227;BME280;24026;49.446;8.576;2023-02-13T04:16:15;102583.34;;;9.91;48.81
38227;BME280;24026;49.446;8.576;2023-02-13T04:18:37;102575.22;;;9.93;48.82
38227;BME280;24026;49.446;8.576;2023-02-13T04:21:02;102580.69;;;9.91;48.66
38227;BME280;24026;49.446;8.576;2023-02-13T04:23:23;102581.34;;;9.93;49.41
38227;BME280;24026;49.446;8.576;2023-02-13T04:25:47;102584.34;;;9.90;48.63
38227;BME280;24026;49.446;8.576;2023-02-13T04:28:09;102592.31;;;9.90;48.71
38227;BME280;24026;49.446;8.576;2023-02-13T04:30:30;102585.19;;;9.91;48.71
38227;BME280;24026;49.446;8.576;2023-02-13T04:32:50;102591.50;;;9.90;48.52
38227;BME280;24026;49.446;8.576;2023-02-13T04:35:12;102578.41;;;9.88;48.76
38227;BME280;24026;49.446;8.576;2023-02-13T04:37:33;102582.91;;;9.88;48.54
38227;BME280;24026;49.446;8.576;2023-02-13T04:39:54;102585.56;;;9.88;48.82
38227;BME280;24026;49.446;8.576;2023-02-13T04:42:14;102584.72;;;9.87;48.46
38227;BME280;24026;49.446;8.576;2023-02-13T04:44:34;102583.91;;;9.87;48.36
38227;BME280;24026;49.446;8.576;2023-02-13T04:46:55;102577.78;;;9.86;48.44
38227;BME280;24026;49.446;8.576;2023-02-13T04:49:15;102581.44;;;9.85;48.52
38227;BME280;24026;49.446;8.576;2023-02-13T04:51:36;102582.06;;;9.87;48.20
38227;BME280;24026;49.446;8.576;2023-02-13T04:53:56;102578.78;;;9.85;48.15
38227;BME280;24026;49.446;8.576;2023-02-13T04:56:17;102580.97;;;9.81;48.28
38227;BME280;24026;49.446;8.576;2023-02-13T04:58:37;102586.09;;;9.83;48.37
38227;BME280;24026;49.446;8.576;2023-02-13T05:00:57;102576.28;;;9.83;48.10
38227;BME280;24026;49.446;8.576;2023-02-13T05:03:18;102577.31;;;9.82;48.18
38227;BME280;24026;49.446;8.576;2023-02-13T05:05:39;102581.78;;;9.82;48.19
38227;BME280;24026;49.446;8.576;2023-02-13T05:07:59;102576.47;;;9.82;48.08
38227;BME280;24026;49.446;8.576;2023-02-13T05:10:20;102577.31;;;9.82;47.77
38227;BME280;24026;49.446;8.576;2023-02-13T05:12:40;102580.97;;;9.81;47.95
38227;BME280;24026;49.446;8.576;2023-02-13T05:15:01;102577.69;;;9.79;47.99
38227;BME280;24026;49.446;8.576;2023-02-13T05:17:21;102583.00;;;9.79;47.86
38227;BME280;24026;49.446;8.576;2023-02-13T05:19:41;102578.69;;;9.78;48.06
38227;BME280;24026;49.446;8.576;2023-02-13T05:22:02;102575.38;;;9.76;47.86
38227;BME280;24026;49.446;8.576;2023-02-13T05:24:41;102579.69;;;9.77;47.52
38227;BME280;24026;49.446;8.576;2023-02-13T05:27:01;102585.84;;;9.78;47.64
38227;BME280;24026;49.446;8.576;2023-02-13T05:29:21;102582.34;;;9.77;47.80
38227;BME280;24026;49.446;8.576;2023-02-13T05:31:42;102588.66;;;9.76;47.70
38227;BME280;24026;49.446;8.576;2023-02-13T05:34:02;102584.16;;;9.77;47.86
38227;BME280;24026;49.446;8.576;2023-02-13T05:36:23;102584.53;;;9.74;47.66
38227;BME280;24026;49.446;8.576;2023-02-13T05:38:43;102587.19;;;9.74;47.79
38227;BME280;24026;49.446;8.576;2023-02-13T05:41:04;102582.09;;;9.72;47.59
38227;BME280;24026;49.446;8.576;2023-02-13T05:43:24;102580.44;;;9.71;47.86
38227;BME280;24026;49.446;8.576;2023-02-13T05:45:45;102582.25;;;9.71;47.47
38227;BME280;24026;49.446;8.576;2023-02-13T05:48:05;102578.75;;;9.70;47.54
38227;BME280;24026;49.446;8.576;2023-02-13T05:50:26;102579.78;;;9.69;47.43
38227;BME280;24026;49.446;8.576;2023-02-13T05:52:46;102576.28;;;9.69;47.70
38227;BME280;24026;49.446;8.576;2023-02-13T05:55:07;102572.81;;;9.68;47.45
38227;BME280;24026;49.446;8.576;2023-02-13T05:57:27;102570.34;;;9.67;47.46
38227;BME280;24026;49.446;8.576;2023-02-13T05:59:47;102573.81;;;9.67;47.34
38227;BME280;24026;49.446;8.576;2023-02-13T06:02:09;102565.03;;;9.67;47.43
38227;BME280;24026;49.446;8.576;2023-02-13T06:04:31;102566.69;;;9.68;47.33
38227;BME280;24026;49.446;8.576;2023-02-13T06:06:51;102572.00;;;9.68;47.25
38227;BME280;24026;49.446;8.576;2023-02-13T06:09:11;102563.28;;;9.74;46.83
38227;BME280;24026;49.446;8.576;2023-02-13T06:11:32;102575.94;;;9.87;46.63
38227;BME280;24026;49.446;8.576;2023-02-13T06:13:54;102578.78;;;10.00;46.32
38227;BME280;24026;49.446;8.576;2023-02-13T06:16:15;102581.59;;;10.13;46.05
38227;BME280;24026;49.446;8.576;2023-02-13T06:18:37;102585.06;;;10.29;45.73
38227;BME280;24026;49.446;8.576;2023-02-13T06:20:59;102578.75;;;10.45;45.48
38227;BME280;24026;49.446;8.576;2023-02-13T06:23:20;102584.28;;;10.65;45.08
38227;BME280;24026;49.446;8.576;2023-02-13T06:25:41;102583.19;;;10.81;44.58
38227;BME280;24026;49.446;8.576;2023-02-13T06:28:03;102583.13;;;10.96;44.33
38227;BME280;24026;49.446;8.576;2023-02-13T06:30:26;102594.94;;;11.08;44.09
38227;BME280;24026;49.446;8.576;2023-02-13T06:32:48;102594.19;;;11.21;43.62
38227;BME280;24026;49.446;8.576;2023-02-13T06:35:08;102592.88;;;11.31;43.27
38227;BME280;24026;49.446;8.576;2023-02-13T06:37:30;102591.31;;;11.44;43.17
38227;BME280;24026;49.446;8.576;2023-02-13T06:39:51;102591.41;;;11.57;42.89
38227;BME280;24026;49.446;8.576;2023-02-13T06:42:12;102589.38;;;11.59;42.74
38227;BME280;24026;49.446;8.576;2023-02-13T06:44:33;102589.19;;;11.61;42.58
38227;BME280;24026;49.446;8.576;2023-02-13T06:46:54;102590.50;;;11.72;42.37
38227;BME280;24026;49.446;8.576;2023-02-13T06:49:14;102582.34;;;11.80;42.32
38227;BME280;24026;49.446;8.576;2023-02-13T06:51:35;102595.91;;;11.85;42.16
38227;BME280;24026;49.446;8.576;2023-02-13T06:53:56;102591.25;;;11.94;41.71
38227;BME280;24026;49.446;8.576;2023-02-13T06:56:18;102587.22;;;12.04;41.65
38227;BME280;24026;49.446;8.576;2023-02-13T06:58:38;102592.72;;;11.96;41.69
38227;BME280;24026;49.446;8.576;2023-02-13T07:01:00;102601.84;;;11.87;41.82
38227;BME280;24026;49.446;8.576;2023-02-13T07:03:22;102591.91;;;12.02;41.58
38227;BME280;24026;49.446;8.576;2023-02-13T07:05:43;102593.59;;;12.10;41.36
38227;BME280;24026;49.446;8.576;2023-02-13T07:08:04;102602.06;;;12.27;40.87
38227;BME280;24026;49.446;8.576;2023-02-13T07:10:24;102607.06;;;12.44;40.54
38227;BME280;24026;49.446;8.576;2023-02-13T07:12:45;102602.16;;;12.54;40.34
38227;BME280;24026;49.446;8.576;2023-02-13T07:15:07;102597.84;;;12.59;40.52
38227;BME280;24026;49.446;8.576;2023-02-13T07:17:28;102600.34;;;12.74;40.18
38227;BME280;24026;49.446;8.576;2023-02-13T07:19:49;102597.09;;;12.86;40.15
38227;BME280;24026;49.446;8.576;2023-02-13T07:22:09;102603.25;;;12.93;40.08
38227;BME280;24026;49.446;8.576;2023-02-13T07:24:30;102606.59;;;13.08;40.14
38227;BME280;24026;49.446;8.576;2023-02-13T07:26:52;102604.13;;;13.20;39.54
38227;BME280;24026;49.446;8.576;2023-02-13T07:29:14;102603.09;;;13.34;39.28
38227;BME280;24026;49.446;8.576;2023-02-13T07:31:36;102604.34;;;13.45;39.19
38227;BME280;24026;49.446;8.576;2023-02-13T07:34:00;102606.59;;;13.55;39.04
38227;BME280;24026;49.446;8.576;2023-02-13T07:36:20;102606.59;;;13.68;39.28
38227;BME280;24026;49.446;8.576;2023-02-13T07:38:43;102600.38;;;13.81;38.76
38227;BME280;24026;49.446;8.576;2023-02-13T07:41:04;102614.34;;;13.97;38.34
38227;BME280;24026;49.446;8.576;2023-02-13T07:43:24;102607.09;;;14.11;38.72
38227;BME280;24026;49.446;8.576;2023-02-13T07:45:45;102609.09;;;14.22;38.59
38227;BME280;24026;49.446;8.576;2023-02-13T07:48:06;102609.88;;;14.29;38.29
38227;BME280;24026;49.446;8.576;2023-02-13T07:50:27;102612.50;;;14.42;37.95
38227;BME280;24026;49.446;8.576;2023-02-13T07:52:56;102616.34;;;14.53;37.42
38227;BME280;24026;49.446;8.576;2023-02-13T07:55:17;102615.31;;;14.61;37.62
38227;BME280;24026;49.446;8.576;2023-02-13T07:57:38;102616.75;;;14.63;37.32
38227;BME280;24026;49.446;8.576;2023-02-13T07:59:58;102620.16;;;14.77;37.30
38227;BME280;24026;49.446;8.576;2023-02-13T08:02:20;102611.06;;;14.85;37.25
38227;BME280;24026;49.446;8.576;2023-02-13T08:04:41;102615.13;;;14.94;36.79
38227;BME280;24026;49.446;8.576;2023-02-13T08:07:06;102610.97;;;14.98;36.51
38227;BME280;24026;49.446;8.576;2023-02-13T08:09:28;102612.13;;;15.09;36.37
38227;BME280;24026;49.446;8.576;2023-02-13T08:12:08;102606.72;;;15.16;36.05
38227;BME280;24026;49.446;8.576;2023-02-13T08:14:30;102611.00;;;15.24;35.90
38227;BME280;24026;49.446;8.576;2023-02-13T08:16:53;102612.78;;;15.30;36.12
38227;BME280;24026;49.446;8.576;2023-02-13T08:19:13;102617.63;;;15.40;35.65
38227;BME280;24026;49.446;8.576;2023-02-13T08:21:35;102617.97;;;15.50;35.76
38227;BME280;24026;49.446;8.576;2023-02-13T08:23:57;102610.13;;;15.48;35.77
38227;BME280;24026;49.446;8.576;2023-02-13T08:26:18;102608.75;;;15.64;35.65
38227;BME280;24026;49.446;8.576;2023-02-13T08:28:38;102616.09;;;15.76;35.66
38227;BME280;24026;49.446;8.576;2023-02-13T08:30:58;102616.84;;;15.83;35.92
38227;BME280;24026;49.446;8.576;2023-02-13T08:33:21;102609.31;;;15.91;36.17
38227;BME280;24026;49.446;8.576;2023-02-13T08:35:42;102606.84;;;15.90;36.01
38227;BME280;24026;49.446;8.576;2023-02-13T08:38:04;102612.38;;;15.77;36.22
38227;BME280;24026;49.446;8.576;2023-02-13T08:40:24;102612.09;;;15.60;36.39
38227;BME280;24026;49.446;8.576;2023-02-13T08:42:46;102612.59;;;15.50;36.36
38227;BME280;24026;49.446;8.576;2023-02-13T08:45:08;102606.50;;;15.43;36.43
38227;BME280;24026;49.446;8.576;2023-02-13T08:47:31;102607.19;;;15.31;36.86
38227;BME280;24026;49.446;8.576;2023-02-13T08:49:51;102606.59;;;15.29;36.63
38227;BME280;24026;49.446;8.576;2023-02-13T08:52:11;102611.44;;;15.21;36.81
38227;BME280;24026;49.446;8.576;2023-02-13T08:54:33;102602.53;;;15.20;36.87
38227;BME280;24026;49.446;8.576;2023-02-13T08:56:56;102610.84;;;15.18;36.97
38227;BME280;24026;49.446;8.576;2023-02-13T08:59:17;102617.22;;;15.17;37.11
38227;BME280;24026;49.446;8.576;2023-02-13T09:01:39;102607.91;;;15.20;36.93
38227;BME280;24026;49.446;8.576;2023-02-13T09:04:03;102612.22;;;15.21;37.21
38227;BME280;24026;49.446;8.576;2023-02-13T09:06:24;102614.25;;;15.00;37.50
38227;BME280;24026;49.446;8.576;2023-02-13T09:08:47;102612.00;;;14.97;37.60
38227;BME280;24026;49.446;8.576;2023-02-13T09:11:08;102608.94;;;14.94;37.73
38227;BME280;24026;49.446;8.576;2023-02-13T09:13:30;102611.75;;;15.06;37.41
38227;BME280;24026;49.446;8.576;2023-02-13T09:15:57;102609.22;;;15.11;37.43
38227;BME280;24026;49.446;8.576;2023-02-13T09:18:18;102607.91;;;15.20;37.46
38227;BME280;24026;49.446;8.576;2023-02-13T09:20:38;102609.06;;;15.31;37.27
38227;BME280;24026;49.446;8.576;2023-02-13T09:22:59;102599.88;;;15.45;36.94
38227;BME280;24026;49.446;8.576;2023-02-13T09:25:19;102600.41;;;15.54;36.85
38227;BME280;24026;49.446;8.576;2023-02-13T09:27:40;102607.03;;;15.70;36.94
38227;BME280;24026;49.446;8.576;2023-02-13T09:30:01;102604.69;;;15.80;36.78
38227;BME280;24026;49.446;8.576;2023-02-13T09:32:22;102608.72;;;15.89;36.62
38227;BME280;24026;49.446;8.576;2023-02-13T09:34:42;102613.28;;;16.07;36.72
38227;BME280;24026;49.446;8.576;2023-02-13T09:37:03;102609.38;;;16.22;36.32
38227;BME280;24026;49.446;8.576;2023-02-13T09:39:23;102612.09;;;16.34;36.21
38227;BME280;24026;49.446;8.576;2023-02-13T09:41:46;102614.63;;;16.47;36.12
38227;BME280;24026;49.446;8.576;2023-02-13T09:46:53;102616.34;;;16.72;35.80
38227;BME280;24026;49.446;8.576;2023-02-13T09:49:16;102617.72;;;16.93;35.63
38227;BME280;24026;49.446;8.576;2023-02-13T09:51:44;102620.78;;;16.96;35.56
38227;BME280;24026;49.446;8.576;2023-02-13T09:54:14;102618.09;;;17.08;35.25
38227;BME280;24026;49.446;8.576;2023-02-13T09:56:39;102613.88;;;17.00;35.47
38227;BME280;24026;49.446;8.576;2023-02-13T10:01:51;102618.41;;;16.88;35.93
38227;BME280;24026;49.446;8.576;2023-02-13T10:04:40;102621.50;;;16.73;36.07
38227;BME280;24026;49.446;8.576;2023-02-13T10:07:38;102627.44;;;16.75;36.32
38227;BME280;24026;49.446;8.576;2023-02-13T10:12:45;102617.16;;;16.72;36.56
38227;BME280;24026;49.446;8.576;2023-02-13T10:15:39;102610.84;;;16.66;36.59
38227;BME280;24026;49.446;8.576;2023-02-13T10:18:04;102614.34;;;16.67;36.85
38227;BME280;24026;49.446;8.576;2023-02-13T10:20:37;102617.97;;;16.61;37.05
38227;BME280;24026;49.446;8.576;2023-02-13T10:23:11;102614.06;;;16.57;37.10
38227;BME280;24026;49.446;8.576;2023-02-13T10:25:48;102609.28;;;16.59;36.98
38227;BME280;24026;49.446;8.576;2023-02-13T10:28:16;102607.00;;;16.62;37.07
38227;BME280;24026;49.446;8.576;2023-02-13T10:30:51;102609.78;;;16.56;36.95
38227;BME280;24026;49.446;8.576;2023-02-13T10:33:24;102610.59;;;16.56;36.99
38227;BME280;24026;49.446;8.576;2023-02-13T10:35:49;102608.47;;;16.58;37.27
38227;BME280;24026;49.446;8.576;2023-02-13T10:38:21;102603.78;;;16.54;37.33
38227;BME280;24026;49.446;8.576;2023-02-13T10:41:04;102603.75;;;16.42;37.50
38227;BME280;24026;49.446;8.576;2023-02-13T10:43:38;102602.03;;;16.47;37.50
38227;BME280;24026;49.446;8.576;2023-02-13T10:56:41;102597.94;;;16.45;37.69
38227;BME280;24026;49.446;8.576;2023-02-13T10:59:26;102596.75;;;16.41;37.70
38227;BME280;24026;49.446;8.576;2023-02-13T11:04:42;102591.41;;;16.41;37.93
38227;BME280;24026;49.446;8.576;2023-02-13T11:07:04;102593.63;;;16.44;37.75
38227;BME280;24026;49.446;8.576;2023-02-13T11:09:37;102593.84;;;16.42;38.15
38227;BME280;24026;49.446;8.576;2023-02-13T11:12:22;102590.78;;;16.39;38.20
38227;BME280;24026;49.446;8.576;2023-02-13T11:14:53;102582.38;;;16.35;38.22
38227;BME280;24026;49.446;8.576;2023-02-13T11:17:16;102573.63;;;16.40;38.23
38227;BME280;24026;49.446;8.576;2023-02-13T11:19:46;102574.69;;;16.39;38.24
38227;BME280;24026;49.446;8.576;2023-02-13T11:22:12;102573.41;;;16.41;38.18
38227;BME280;24026;49.446;8.576;2023-02-13T11:24:34;102577.97;;;16.41;38.28
38227;BME280;24026;49.446;8.576;2023-02-13T11:27:01;102571.34;;;16.55;37.96
38227;BME280;24026;49.446;8.576;2023-02-13T11:29:30;102564.44;;;16.78;37.58
38227;BME280;24026;49.446;8.576;2023-02-13T11:34:32;102566.25;;;17.08;37.18
38227;BME280;24026;49.446;8.576;2023-02-13T11:37:13;102570.09;;;17.23;36.69
38227;BME280;24026;49.446;8.576;2023-02-13T11:39:34;102563.66;;;17.48;36.36
38227;BME280;24026;49.446;8.576;2023-02-13T11:41:55;102560.03;;;17.66;36.29
38227;BME280;24026;49.446;8.576;2023-02-13T11:44:27;102567.00;;;17.79;35.97
38227;BME280;24026;49.446;8.576;2023-02-13T11:46:50;102568.75;;;17.97;35.46
38227;BME280;24026;49.446;8.576;2023-02-13T11:49:22;102568.72;;;18.09;35.35
38227;BME280;24026;49.446;8.576;2023-02-13T11:51:47;102563.03;;;18.22;35.02
38227;BME280;24026;49.446;8.576;2023-02-13T11:54:28;102562.94;;;18.17;35.25
38227;BME280;24026;49.446;8.576;2023-02-13T11:56:52;102559.78;;;18.20;35.20
38227;BME280;24026;49.446;8.576;2023-02-13T11:59:12;102563.00;;;18.05;35.55
38227;BME280;24026;49.446;8.576;2023-02-13T12:01:33;102561.50;;;17.98;35.72
38227;BME280;24026;49.446;8.576;2023-02-13T12:04:00;102554.00;;;18.00;35.45
38227;BME280;24026;49.446;8.576;2023-02-13T12:06:21;102552.94;;;18.01;35.67
38227;BME280;24026;49.446;8.576;2023-02-13T12:08:44;102553.44;;;17.98;35.48
38227;BME280;24026;49.446;8.576;2023-02-13T12:11:23;102552.28;;;17.93;35.92
38227;BME280;24026;49.446;8.576;2023-02-13T12:13:44;102539.28;;;17.90;35.80
38227;BME280;24026;49.446;8.576;2023-02-13T12:16:10;102544.66;;;17.90;36.00
38227;BME280;24026;49.446;8.576;2023-02-13T12:18:37;102539.75;;;17.87;35.84
38227;BME280;24026;49.446;8.576;2023-02-13T12:27:26;102541.31;;;17.71;36.26
38227;BME280;24026;49.446;8.576;2023-02-13T12:32:20;102532.81;;;17.63;36.58
38227;BME280;24026;49.446;8.576;2023-02-13T12:35:20;102524.38;;;17.59;36.40
38227;BME280;24026;49.446;8.576;2023-02-13T12:45:32;102522.88;;;17.51;36.68
38227;BME280;24026;49.446;8.576;2023-02-13T12:48:11;102519.38;;;17.39;36.81
38227;BME280;24026;49.446;8.576;2023-02-13T12:51:12;102515.31;;;17.36;37.01
38227;BME280;24026;49.446;8.576;2023-02-13T12:56:24;102505.69;;;17.40;37.04
38227;BME280;24026;49.446;8.576;2023-02-13T12:58:59;102501.06;;;17.36;37.34
38227;BME280;24026;49.446;8.576;2023-02-13T13:07:29;102499.06;;;17.31;37.19
38227;BME280;24026;49.446;8.576;2023-02-13T13:09:59;102501.41;;;17.28;37.31
38227;BME280;24026;49.446;8.576;2023-02-13T13:17:53;102489.38;;;17.18;37.39
38227;BME280;24026;49.446;8.576;2023-02-13T13:20:45;102488.69;;;17.23;37.43
38227;BME280;24026;49.446;8.576;2023-02-13T13:28:39;102482.97;;;17.19;37.57
38227;BME280;24026;49.446;8.576;2023-02-13T13:31:02;102478.63;;;17.18;37.60
38227;BME280;24026;49.446;8.576;2023-02-13T13:33:25;102477.59;;;17.19;37.74
38227;BME280;24026;49.446;8.576;2023-02-13T13:41:40;102468.00;;;17.12;37.76
38227;BME280;24026;49.446;8.576;2023-02-13T13:47:04;102470.34;;;17.08;38.07
38227;BME280;24026;49.446;8.576;2023-02-13T13:54:34;102466.50;;;17.16;37.83
38227;BME280;24026;49.446;8.576;2023-02-13T14:04:38;102461.34;;;17.14;38.07
38227;BME280;24026;49.446;8.576;2023-02-13T14:07:15;102449.78;;;17.14;38.13
38227;BME280;24026;49.446;8.576;2023-02-13T14:09:42;102446.38;;;17.18;38.12
38227;BME280;24026;49.446;8.576;2023-02-13T14:14:52;102441.00;;;17.18;38.31
38227;BME280;24026;49.446;8.576;2023-02-13T14:17:14;102439.41;;;17.17;38.29
38227;BME280;24026;49.446;8.576;2023-02-13T14:19:42;102433.19;;;17.17;38.28
38227;BME280;24026;49.446;8.576;2023-02-13T14:22:24;102433.41;;;17.15;38.39
38227;BME280;24026;49.446;8.576;2023-02-13T14:24:56;102434.50;;;17.14;38.40
38227;BME280;24026;49.446;8.576;2023-02-13T14:27:23;102432.72;;;17.20;38.33
38227;BME280;24026;49.446;8.576;2023-02-13T14:29:48;102435.31;;;17.15;38.28
38227;BME280;24026;49.446;8.576;2023-02-13T14:32:17;102441.47;;;17.15;38.28
38227;BME280;24026;49.446;8.576;2023-02-13T14:34:40;102439.03;;;17.14;38.70
38227;BME280;24026;49.446;8.576;2023-02-13T14:37:20;102436.22;;;17.20;38.33
38227;BME280;24026;49.446;8.576;2023-02-13T14:42:45;102430.78;;;17.85;37.29